createdAt,value
2018-03-01T00:00:28.405Z,992.59
2018-03-01T00:01:28.481Z,992.56
2018-03-01T00:02:28.568Z,992.55
2018-03-01T00:03:28.659Z,992.51
2018-03-01T00:04:28.740Z,992.56
2018-03-01T00:05:28.826Z,992.52
2018-03-01T00:06:28.910Z,992.54
2018-03-01T00:07:28.993Z,992.59
2018-03-01T00:08:29.077Z,992.63
2018-03-01T00:09:29.166Z,992.67
2018-03-01T00:10:29.250Z,992.65
2018-03-01T00:11:29.341Z,992.59
2018-03-01T00:12:29.426Z,992.60
2018-03-01T00:13:29.511Z,992.58
2018-03-01T00:14:29.597Z,992.56
2018-03-01T00:15:29.677Z,992.59
2018-03-01T00:16:29.763Z,992.55
2018-03-01T00:17:29.850Z,992.52
2018-03-01T00:18:29.936Z,992.53
2018-03-01T00:19:30.018Z,992.52
2018-03-01T00:20:30.101Z,992.47
2018-03-01T00:21:30.187Z,992.48
2018-03-01T00:22:30.274Z,992.52
2018-03-01T00:23:30.346Z,992.41
2018-03-01T00:24:30.432Z,992.45
2018-03-01T00:25:30.511Z,992.45
2018-03-01T00:26:30.593Z,992.48
2018-03-01T00:27:30.730Z,992.40
2018-03-01T00:28:30.768Z,992.42
2018-03-01T00:29:30.842Z,992.38
2018-03-01T00:30:30.937Z,992.44
2018-03-01T00:31:31.021Z,992.30
2018-03-01T00:32:31.107Z,992.31
2018-03-01T00:33:31.187Z,992.26
2018-03-01T00:34:31.284Z,992.20
2018-03-01T00:35:31.370Z,992.25
2018-03-01T00:36:31.462Z,992.15
2018-03-01T00:37:31.547Z,992.16
2018-03-01T00:38:31.631Z,992.19
2018-03-01T00:39:31.716Z,992.17
2018-03-01T00:40:31.802Z,992.16
2018-03-01T00:41:31.881Z,992.22
2018-03-01T00:42:31.969Z,992.17
2018-03-01T00:43:32.051Z,992.19
2018-03-01T00:44:32.132Z,992.15
2018-03-01T00:45:32.224Z,992.21
2018-03-01T00:46:32.296Z,992.17
2018-03-01T00:47:32.383Z,992.12
2018-03-01T00:48:32.464Z,992.10
2018-03-01T00:49:32.546Z,992.09
2018-03-01T00:50:32.630Z,992.12
2018-03-01T00:51:32.723Z,992.08
2018-03-01T00:52:32.810Z,992.14
2018-03-01T00:53:32.892Z,992.12
2018-03-01T00:54:32.973Z,992.10
2018-03-01T00:55:33.069Z,992.06
2018-03-01T00:56:33.152Z,992.12
2018-03-01T00:57:33.235Z,992.09
2018-03-01T00:58:33.320Z,992.01
2018-03-01T00:59:33.401Z,992.02
2018-03-01T01:00:33.484Z,991.98
2018-03-01T01:01:33.569Z,991.94
2018-03-01T01:02:33.652Z,991.89
2018-03-01T01:03:33.738Z,991.89
2018-03-01T01:04:33.825Z,991.90
2018-03-01T01:05:33.905Z,991.90
2018-03-01T01:06:33.994Z,991.94
2018-03-01T01:07:34.069Z,991.93
2018-03-01T01:08:34.152Z,991.94
2018-03-01T01:09:34.247Z,991.98
2018-03-01T01:10:34.333Z,991.93
2018-03-01T01:11:34.415Z,991.92
2018-03-01T01:12:34.497Z,991.86
2018-03-01T01:13:34.580Z,991.82
2018-03-01T01:14:34.662Z,991.80
2018-03-01T01:15:34.754Z,991.83
2018-03-01T01:16:34.840Z,991.79
2018-03-01T01:17:34.924Z,991.75
2018-03-01T01:18:35.003Z,991.75
2018-03-01T01:19:35.085Z,991.73
2018-03-01T01:20:35.166Z,991.73
2018-03-01T01:21:35.266Z,991.69
2018-03-01T01:22:35.347Z,991.65
2018-03-01T01:23:35.432Z,991.69
2018-03-01T01:24:35.518Z,991.64
2018-03-01T01:25:35.603Z,991.67
2018-03-01T01:26:35.681Z,991.64
2018-03-01T01:27:35.776Z,991.55
2018-03-01T01:28:35.862Z,991.53
2018-03-01T01:29:35.944Z,991.53
2018-03-01T01:30:36.033Z,991.51
2018-03-01T01:31:36.108Z,991.48
2018-03-01T01:32:36.194Z,991.46
2018-03-01T01:33:36.285Z,991.37
2018-03-01T01:34:36.370Z,991.37
2018-03-01T01:35:36.451Z,991.40
2018-03-01T01:36:36.538Z,991.29
2018-03-01T01:37:36.619Z,991.25
2018-03-01T01:38:36.703Z,991.21
2018-03-01T01:39:36.791Z,991.14
2018-03-01T01:40:36.878Z,991.14
2018-03-01T01:41:36.955Z,991.10
2018-03-01T01:42:37.054Z,991.10
2018-03-01T01:43:37.123Z,991.19
2018-03-01T01:44:37.205Z,991.13
2018-03-01T01:45:37.292Z,991.12
2018-03-01T01:46:37.387Z,991.08
2018-03-01T01:47:37.470Z,991.04
2018-03-01T01:48:37.552Z,991.12
2018-03-01T01:49:37.640Z,991.09
2018-03-01T01:50:37.724Z,991.07
2018-03-01T01:51:37.812Z,991.07
2018-03-01T01:52:37.897Z,991.00
2018-03-01T01:53:37.979Z,990.98
2018-03-01T01:54:38.060Z,990.99
2018-03-01T01:55:38.148Z,991.02
2018-03-01T01:56:38.235Z,991.06
2018-03-01T01:57:38.319Z,991.02
2018-03-01T01:58:38.402Z,991.03
2018-03-01T01:59:38.510Z,990.98
2018-03-01T02:00:38.569Z,991.06
2018-03-01T02:01:38.650Z,991.04
2018-03-01T02:02:38.737Z,991.01
2018-03-01T02:03:38.829Z,990.96
2018-03-01T02:04:38.909Z,990.97
2018-03-01T02:05:38.993Z,990.89
2018-03-01T02:06:39.077Z,990.91
2018-03-01T02:07:39.160Z,990.90
2018-03-01T02:08:39.243Z,990.92
2018-03-01T02:09:39.333Z,990.93
2018-03-01T02:10:39.416Z,990.89
2018-03-01T02:11:39.505Z,990.89
2018-03-01T02:12:39.582Z,990.86
2018-03-01T02:13:39.665Z,990.80
2018-03-01T02:14:39.752Z,990.87
2018-03-01T02:15:39.844Z,990.82
2018-03-01T02:16:39.924Z,990.88
2018-03-01T02:17:40.007Z,990.78
2018-03-01T02:18:40.089Z,990.90
2018-03-01T02:19:40.174Z,990.92
2018-03-01T02:20:40.259Z,990.91
2018-03-01T02:21:40.365Z,990.91
2018-03-01T02:22:40.434Z,990.96
2018-03-01T02:23:40.518Z,990.95
2018-03-01T02:24:40.607Z,990.92
2018-03-01T02:25:40.699Z,990.93
2018-03-01T02:26:40.791Z,990.98
2018-03-01T02:27:40.877Z,990.89
2018-03-01T02:28:40.958Z,990.94
2018-03-01T02:29:41.043Z,990.98
2018-03-01T02:30:41.130Z,990.96
2018-03-01T02:31:41.215Z,990.92
2018-03-01T02:32:41.295Z,990.93
2018-03-01T02:33:41.376Z,990.97
2018-03-01T02:34:41.461Z,990.99
2018-03-01T02:35:41.548Z,991.01
2018-03-01T02:36:41.639Z,990.92
2018-03-01T02:37:41.713Z,990.93
2018-03-01T02:38:41.800Z,990.97
2018-03-01T02:39:41.879Z,990.99
2018-03-01T02:40:41.962Z,991.01
2018-03-01T02:41:42.045Z,991.04
2018-03-01T02:42:42.126Z,991.03
2018-03-01T02:43:42.207Z,991.10
2018-03-01T02:44:42.291Z,991.11
2018-03-01T02:45:42.383Z,991.14
2018-03-01T02:46:42.475Z,991.14
2018-03-01T02:47:42.551Z,991.16
2018-03-01T02:48:42.634Z,991.14
2018-03-01T02:49:42.721Z,991.16
2018-03-01T02:50:42.802Z,991.14
2018-03-01T02:51:42.887Z,991.17
2018-03-01T02:52:42.971Z,991.10
2018-03-01T02:53:43.054Z,991.08
2018-03-01T02:54:43.138Z,991.12
2018-03-01T02:55:43.224Z,991.07
2018-03-01T02:56:43.310Z,991.08
2018-03-01T02:57:43.399Z,991.01
2018-03-01T02:58:43.489Z,990.98
2018-03-01T02:59:43.568Z,990.94
2018-03-01T03:00:43.651Z,990.92
2018-03-01T03:01:43.733Z,990.91
2018-03-01T03:02:43.815Z,990.90
2018-03-01T03:03:43.917Z,990.92
2018-03-01T03:04:43.999Z,990.91
2018-03-01T03:05:44.084Z,990.95
2018-03-01T03:06:44.165Z,990.92
2018-03-01T03:07:44.250Z,990.90
2018-03-01T03:08:44.332Z,990.93
2018-03-01T03:09:44.423Z,990.87
2018-03-01T03:10:44.506Z,990.86
2018-03-01T03:11:44.589Z,990.86
2018-03-01T03:12:44.671Z,990.81
2018-03-01T03:13:44.753Z,990.85
2018-03-01T03:14:44.842Z,990.83
2018-03-01T03:15:44.928Z,990.90
2018-03-01T03:16:45.009Z,990.83
2018-03-01T03:17:45.096Z,990.87
2018-03-01T03:18:45.186Z,990.84
2018-03-01T03:19:45.271Z,990.80
2018-03-01T03:20:45.353Z,990.81
2018-03-01T03:21:45.439Z,990.76
2018-03-01T03:22:45.526Z,990.75
2018-03-01T03:23:45.612Z,990.76
2018-03-01T03:24:45.699Z,990.78
2018-03-01T03:25:45.780Z,990.71
2018-03-01T03:26:45.870Z,990.76
2018-03-01T03:27:45.954Z,990.72
2018-03-01T03:28:46.038Z,990.76
2018-03-01T03:29:46.124Z,990.72
2018-03-01T03:30:46.210Z,990.76
2018-03-01T03:31:46.292Z,990.70
2018-03-01T03:32:46.375Z,990.76
2018-03-01T03:33:46.468Z,990.79
2018-03-01T03:34:46.551Z,990.76
2018-03-01T03:35:46.634Z,990.76
2018-03-01T03:36:46.720Z,990.73
2018-03-01T03:37:46.809Z,990.67
2018-03-01T03:38:46.890Z,990.71
2018-03-01T03:39:46.989Z,990.61
2018-03-01T03:40:47.066Z,990.56
2018-03-01T03:41:47.159Z,990.55
2018-03-01T03:42:47.235Z,990.58
2018-03-01T03:43:47.317Z,990.56
2018-03-01T03:44:47.401Z,990.58
2018-03-01T03:45:47.483Z,990.52
2018-03-01T03:46:47.569Z,990.46
2018-03-01T03:47:47.654Z,990.47
2018-03-01T03:48:47.737Z,990.35
2018-03-01T03:49:47.823Z,990.42
2018-03-01T03:50:47.909Z,990.30
2018-03-01T03:51:47.991Z,990.34
2018-03-01T03:52:48.078Z,990.29
2018-03-01T03:53:48.163Z,990.31
2018-03-01T03:54:48.244Z,990.34
2018-03-01T03:55:48.326Z,990.27
2018-03-01T03:56:48.410Z,990.25
2018-03-01T03:57:48.498Z,990.31
2018-03-01T03:58:48.581Z,990.27
2018-03-01T03:59:48.661Z,990.28
2018-03-01T04:00:48.743Z,990.22
2018-03-01T04:01:48.829Z,990.25
2018-03-01T04:02:48.918Z,990.20
2018-03-01T04:03:49.000Z,990.22
2018-03-01T04:04:49.092Z,990.22
2018-03-01T04:05:49.178Z,990.18
2018-03-01T04:06:49.262Z,990.15
2018-03-01T04:07:49.350Z,990.07
2018-03-01T04:08:49.436Z,990.09
2018-03-01T04:09:49.521Z,990.03
2018-03-01T04:10:49.604Z,990.04
2018-03-01T04:11:49.686Z,990.00
2018-03-01T04:12:49.771Z,990.00
2018-03-01T04:13:49.855Z,989.95
2018-03-01T04:14:49.938Z,989.95
2018-03-01T04:15:50.025Z,989.92
2018-03-01T04:16:50.109Z,989.86
2018-03-01T04:17:50.199Z,989.84
2018-03-01T04:18:50.289Z,989.81
2018-03-01T04:19:50.367Z,989.74
2018-03-01T04:20:50.447Z,989.76
2018-03-01T04:21:50.535Z,989.72
2018-03-01T04:22:50.658Z,989.67
2018-03-01T04:23:50.702Z,989.71
2018-03-01T04:24:50.788Z,989.75
2018-03-01T04:25:50.883Z,989.76
2018-03-01T04:26:50.969Z,989.73
2018-03-01T04:27:51.084Z,989.68
2018-03-01T04:28:51.135Z,989.59
2018-03-01T04:29:51.220Z,989.63
2018-03-01T04:30:51.299Z,989.65
2018-03-01T04:31:51.384Z,989.68
2018-03-01T04:32:51.466Z,989.62
2018-03-01T04:33:51.553Z,989.63
2018-03-01T04:34:51.640Z,989.61
2018-03-01T04:35:51.714Z,989.66
2018-03-01T04:36:51.786Z,989.78
2018-03-01T04:37:51.876Z,989.69
2018-03-01T04:38:51.959Z,989.70
2018-03-01T04:39:52.041Z,989.66
2018-03-01T04:40:52.127Z,989.73
2018-03-01T04:41:52.215Z,989.72
2018-03-01T04:42:52.297Z,989.71
2018-03-01T04:43:52.377Z,989.66
2018-03-01T04:44:52.468Z,989.67
2018-03-01T04:45:52.553Z,989.65
2018-03-01T04:46:52.636Z,989.67
2018-03-01T04:47:52.716Z,989.67
2018-03-01T04:48:52.803Z,989.63
2018-03-01T04:49:52.892Z,989.65
2018-03-01T04:50:52.976Z,989.68
2018-03-01T04:51:53.057Z,989.69
2018-03-01T04:52:53.140Z,989.71
2018-03-01T04:53:53.226Z,989.67
2018-03-01T04:54:53.309Z,989.64
2018-03-01T04:55:53.394Z,989.62
2018-03-01T04:56:53.478Z,989.53
2018-03-01T04:57:53.561Z,989.52
2018-03-01T04:58:53.649Z,989.54
2018-03-01T04:59:53.733Z,989.54
2018-03-01T05:00:53.817Z,989.48
2018-03-01T05:01:53.897Z,989.46
2018-03-01T05:02:53.984Z,989.46
2018-03-01T05:03:54.070Z,989.42
2018-03-01T05:04:54.162Z,989.39
2018-03-01T05:05:54.247Z,989.34
2018-03-01T05:06:54.334Z,989.34
2018-03-01T05:07:54.419Z,989.33
2018-03-01T05:08:54.500Z,989.37
2018-03-01T05:09:54.584Z,989.33
2018-03-01T05:10:54.688Z,989.32
2018-03-01T05:11:54.760Z,989.32
2018-03-01T05:12:54.839Z,989.29
2018-03-01T05:13:54.924Z,989.30
2018-03-01T05:14:55.008Z,989.28
2018-03-01T05:15:55.096Z,989.31
2018-03-01T05:16:55.175Z,989.31
2018-03-01T05:17:55.260Z,989.37
2018-03-01T05:18:55.349Z,989.37
2018-03-01T05:19:55.433Z,989.34
2018-03-01T05:20:55.514Z,989.30
2018-03-01T05:21:55.594Z,989.26
2018-03-01T05:22:55.683Z,989.23
2018-03-01T05:23:55.768Z,989.22
2018-03-01T05:24:55.861Z,989.13
2018-03-01T05:25:55.945Z,989.16
2018-03-01T05:26:56.029Z,989.14
2018-03-01T05:27:56.113Z,989.05
2018-03-01T05:28:56.198Z,989.09
2018-03-01T05:29:56.282Z,988.98
2018-03-01T05:30:56.366Z,989.03
2018-03-01T05:31:56.450Z,988.97
2018-03-01T05:32:56.533Z,988.96
2018-03-01T05:33:56.619Z,988.92
2018-03-01T05:34:56.701Z,988.90
2018-03-01T05:35:56.785Z,988.87
2018-03-01T05:36:56.869Z,988.90
2018-03-01T05:37:56.957Z,988.93
2018-03-01T05:38:57.038Z,989.01
2018-03-01T05:39:57.121Z,988.96
2018-03-01T05:40:57.209Z,988.92
2018-03-01T05:41:57.292Z,988.87
2018-03-01T05:42:57.375Z,988.80
2018-03-01T05:43:57.460Z,988.82
2018-03-01T05:44:57.544Z,988.76
2018-03-01T05:45:57.632Z,988.77
2018-03-01T05:46:57.759Z,988.78
2018-03-01T05:47:57.797Z,988.82
2018-03-01T05:48:57.882Z,988.83
2018-03-01T05:49:57.972Z,988.77
2018-03-01T05:50:58.055Z,988.74
2018-03-01T05:51:58.178Z,988.78
2018-03-01T05:52:58.223Z,988.76
2018-03-01T05:53:58.312Z,988.76
2018-03-01T05:54:58.423Z,988.64
2018-03-01T05:55:58.483Z,988.68
2018-03-01T05:56:58.562Z,988.71
2018-03-01T05:57:58.648Z,988.56
2018-03-01T05:58:58.734Z,988.60
2018-03-01T05:59:58.825Z,988.62
2018-03-01T06:00:58.895Z,988.66
2018-03-01T06:01:58.980Z,988.60
2018-03-01T06:02:59.065Z,988.63
2018-03-01T06:03:59.149Z,988.70
2018-03-01T06:04:59.235Z,988.67
2018-03-01T06:05:59.318Z,988.70
2018-03-01T06:06:59.407Z,988.74
2018-03-01T06:07:59.486Z,988.79
2018-03-01T06:08:59.567Z,988.73
2018-03-01T06:09:59.652Z,988.77
2018-03-01T06:10:59.738Z,988.73
2018-03-01T06:11:59.825Z,988.69
2018-03-01T06:12:59.908Z,988.66
2018-03-01T06:13:59.992Z,988.61
2018-03-01T06:15:00.081Z,988.59
2018-03-01T06:16:00.159Z,988.60
2018-03-01T06:17:00.259Z,988.62
2018-03-01T06:18:00.338Z,988.63
2018-03-01T06:19:00.465Z,988.52
2018-03-01T06:20:00.515Z,988.57
2018-03-01T06:21:00.597Z,988.55
2018-03-01T06:22:00.683Z,988.54
2018-03-01T06:23:00.774Z,988.59
2018-03-01T06:24:00.857Z,988.45
2018-03-01T06:25:00.940Z,988.45
2018-03-01T06:26:01.028Z,988.44
2018-03-01T06:27:01.114Z,988.58
2018-03-01T06:28:01.230Z,988.52
2018-03-01T06:29:01.288Z,988.50
2018-03-01T06:30:01.375Z,988.53
2018-03-01T06:31:01.453Z,988.43
2018-03-01T06:32:01.544Z,988.49
2018-03-01T06:33:01.625Z,988.41
2018-03-01T06:34:01.711Z,988.37
2018-03-01T06:35:01.796Z,988.33
2018-03-01T06:36:01.878Z,988.27
2018-03-01T06:37:01.986Z,988.18
2018-03-01T06:38:02.048Z,988.32
2018-03-01T06:39:02.130Z,988.30
2018-03-01T06:40:02.214Z,988.31
2018-03-01T06:41:02.302Z,988.28
2018-03-01T06:42:02.509Z,988.36
2018-03-01T06:43:02.468Z,988.35
2018-03-01T06:44:02.554Z,988.46
2018-03-01T06:45:02.641Z,988.25
2018-03-01T06:46:02.727Z,988.26
2018-03-01T06:47:02.813Z,988.31
2018-03-01T06:48:02.899Z,988.34
2018-03-01T06:49:02.985Z,988.43
2018-03-01T06:50:03.064Z,988.37
2018-03-01T06:51:03.147Z,988.43
2018-03-01T06:52:03.229Z,988.42
2018-03-01T06:53:03.314Z,988.41
2018-03-01T06:54:03.402Z,988.46
2018-03-01T06:55:03.482Z,988.46
2018-03-01T06:56:03.567Z,988.51
2018-03-01T06:57:03.654Z,988.54
2018-03-01T06:58:03.740Z,988.49
2018-03-01T06:59:03.867Z,988.49
2018-03-01T07:00:03.912Z,988.55
2018-03-01T07:01:03.999Z,988.51
2018-03-01T07:02:04.083Z,988.56
2018-03-01T07:03:04.163Z,988.52
2018-03-01T07:04:04.249Z,988.63
2018-03-01T07:05:04.337Z,988.51
2018-03-01T07:06:04.419Z,988.58
2018-03-01T07:07:04.507Z,988.54
2018-03-01T07:08:04.590Z,988.53
2018-03-01T07:09:04.672Z,988.51
2018-03-01T07:10:04.753Z,988.47
2018-03-01T07:11:04.857Z,988.44
2018-03-01T07:12:04.926Z,988.50
2018-03-01T07:13:05.015Z,988.43
2018-03-01T07:14:05.094Z,988.48
2018-03-01T07:15:05.181Z,988.43
2018-03-01T07:16:05.267Z,988.49
2018-03-01T07:17:05.348Z,988.39
2018-03-01T07:18:05.430Z,988.37
2018-03-01T07:19:05.516Z,988.41
2018-03-01T07:20:05.602Z,988.42
2018-03-01T07:21:05.688Z,988.43
2018-03-01T07:22:05.774Z,988.35
2018-03-01T07:23:05.862Z,988.44
2018-03-01T07:24:05.946Z,988.43
2018-03-01T07:25:06.037Z,988.42
2018-03-01T07:26:06.125Z,988.39
2018-03-01T07:27:06.207Z,988.44
2018-03-01T07:28:06.309Z,988.47
2018-03-01T07:29:06.384Z,988.44
2018-03-01T07:30:06.459Z,988.44
2018-03-01T07:31:06.536Z,988.48
2018-03-01T07:32:06.619Z,988.56
2018-03-01T07:33:06.707Z,988.42
2018-03-01T07:34:06.789Z,988.46
2018-03-01T07:35:06.874Z,988.49
2018-03-01T07:36:06.956Z,988.42
2018-03-01T07:37:07.044Z,988.53
2018-03-01T07:38:07.128Z,988.51
2018-03-01T07:39:07.213Z,988.49
2018-03-01T07:40:07.298Z,988.55
2018-03-01T07:41:07.386Z,988.54
2018-03-01T07:42:07.465Z,988.55
2018-03-01T07:43:07.550Z,988.47
2018-03-01T07:44:07.635Z,988.54
2018-03-01T07:45:07.717Z,988.45
2018-03-01T07:46:07.804Z,988.48
2018-03-01T07:47:07.891Z,988.52
2018-03-01T07:48:07.972Z,988.50
2018-03-01T07:49:08.057Z,988.48
2018-03-01T07:50:08.146Z,988.51
2018-03-01T07:51:08.228Z,988.47
2018-03-01T07:52:08.313Z,988.45
2018-03-01T07:53:08.397Z,988.43
2018-03-01T07:54:08.485Z,988.46
2018-03-01T07:55:08.567Z,988.34
2018-03-01T07:56:08.654Z,988.55
2018-03-01T07:57:08.736Z,988.34
2018-03-01T07:58:08.828Z,988.36
2018-03-01T07:59:08.908Z,988.41
2018-03-01T08:00:08.996Z,988.44
2018-03-01T08:01:09.079Z,988.40
2018-03-01T08:02:09.161Z,988.39
2018-03-01T08:03:09.250Z,988.37
2018-03-01T08:04:09.338Z,988.33
2018-03-01T08:05:09.560Z,988.41
2018-03-01T08:06:09.515Z,988.43
2018-03-01T08:07:09.598Z,988.31
2018-03-01T08:08:09.683Z,988.36
2018-03-01T08:09:09.766Z,988.41
2018-03-01T08:10:09.853Z,988.40
2018-03-01T08:11:09.933Z,988.31
2018-03-01T08:12:10.015Z,988.36
2018-03-01T08:13:10.098Z,988.33
2018-03-01T08:14:10.185Z,988.29
2018-03-01T08:15:10.270Z,988.33
2018-03-01T08:16:10.353Z,988.41
2018-03-01T08:17:10.437Z,988.39
2018-03-01T08:18:10.518Z,988.36
2018-03-01T08:19:10.609Z,988.30
2018-03-01T08:20:10.697Z,988.36
2018-03-01T08:21:10.782Z,988.23
2018-03-01T08:22:10.867Z,988.26
2018-03-01T08:23:10.955Z,988.17
2018-03-01T08:24:11.039Z,988.17
2018-03-01T08:25:11.122Z,988.18
2018-03-01T08:26:11.213Z,988.12
2018-03-01T08:27:11.295Z,988.20
2018-03-01T08:28:11.385Z,988.15
2018-03-01T08:29:11.458Z,988.11
2018-03-01T08:30:11.541Z,988.12
2018-03-01T08:31:11.625Z,988.11
2018-03-01T08:32:11.706Z,988.08
2018-03-01T08:33:11.791Z,988.06
2018-03-01T08:34:11.882Z,988.07
2018-03-01T08:35:11.964Z,987.97
2018-03-01T08:36:12.048Z,987.92
2018-03-01T08:37:12.134Z,987.95
2018-03-01T08:38:12.218Z,988.00
2018-03-01T08:39:12.308Z,987.98
2018-03-01T08:40:12.395Z,987.94
2018-03-01T08:41:12.493Z,987.96
2018-03-01T08:42:12.553Z,987.87
2018-03-01T08:43:12.633Z,987.85
2018-03-01T08:44:12.720Z,987.80
2018-03-01T08:45:12.806Z,987.86
2018-03-01T08:46:12.899Z,987.89
2018-03-01T08:47:12.973Z,987.86
2018-03-01T08:48:13.056Z,987.87
2018-03-01T08:49:13.142Z,987.89
2018-03-01T08:50:13.227Z,987.85
2018-03-01T08:51:13.310Z,987.77
2018-03-01T08:52:13.399Z,987.82
2018-03-01T08:53:13.510Z,987.88
2018-03-01T08:54:13.571Z,987.81
2018-03-01T08:55:13.652Z,987.80
2018-03-01T08:56:13.740Z,987.77
2018-03-01T08:57:13.823Z,987.84
2018-03-01T08:58:13.910Z,987.79
2018-03-01T08:59:13.995Z,987.81
2018-03-01T09:00:14.079Z,987.75
2018-03-01T09:01:14.156Z,987.73
2018-03-01T09:02:14.242Z,987.75
2018-03-01T09:03:14.329Z,987.67
2018-03-01T09:04:14.420Z,987.70
2018-03-01T09:05:14.501Z,987.63
2018-03-01T09:06:14.586Z,987.61
2018-03-01T09:07:14.672Z,987.64
2018-03-01T09:08:14.755Z,987.59
2018-03-01T09:09:14.841Z,987.65
2018-03-01T09:10:14.932Z,987.60
2018-03-01T09:11:15.019Z,987.53
2018-03-01T09:12:15.108Z,987.60
2018-03-01T09:13:15.197Z,987.55
2018-03-01T09:14:15.285Z,987.57
2018-03-01T09:15:15.374Z,987.45
2018-03-01T09:16:15.458Z,987.53
2018-03-01T09:17:15.540Z,987.44
2018-03-01T09:18:15.628Z,987.47
2018-03-01T09:19:15.718Z,987.50
2018-03-01T09:20:15.810Z,987.51
2018-03-01T09:21:15.897Z,987.45
2018-03-01T09:22:15.993Z,987.43
2018-03-01T09:23:16.084Z,987.47
2018-03-01T09:24:16.172Z,987.44
2018-03-01T09:25:16.264Z,987.37
2018-03-01T09:26:16.348Z,987.44
2018-03-01T09:27:16.438Z,987.36
2018-03-01T09:28:16.543Z,987.39
2018-03-01T09:31:48.660Z,987.40
2018-03-01T09:32:48.743Z,987.38
2018-03-01T09:33:48.828Z,987.37
2018-03-01T09:34:48.916Z,987.44
2018-03-01T09:35:48.999Z,987.47
2018-03-01T09:36:49.100Z,987.39
2018-03-01T09:37:49.169Z,987.39
2018-03-01T09:38:49.257Z,987.45
2018-03-01T09:39:49.340Z,987.35
2018-03-01T09:40:49.427Z,987.35
2018-03-01T09:41:49.513Z,987.44
2018-03-01T09:42:49.605Z,987.38
2018-03-01T09:43:49.684Z,987.36
2018-03-01T09:44:49.772Z,987.32
2018-03-01T09:45:49.855Z,987.38
2018-03-01T09:46:49.937Z,987.34
2018-03-01T09:47:50.025Z,987.33
2018-03-01T09:48:50.113Z,987.26
2018-03-01T09:49:50.198Z,987.21
2018-03-01T09:50:50.287Z,987.15
2018-03-01T09:51:50.375Z,987.25
2018-03-01T09:52:50.460Z,987.23
2018-03-01T09:53:50.542Z,987.19
2018-03-01T09:54:50.632Z,987.34
2018-03-01T09:55:50.720Z,987.22
2018-03-01T09:56:50.796Z,987.22
2018-03-01T09:57:50.901Z,987.25
2018-03-01T09:58:50.987Z,987.19
2018-03-01T09:59:51.075Z,987.25
2018-03-01T10:00:51.161Z,987.23
2018-03-01T10:01:51.246Z,987.26
2018-03-01T10:02:51.328Z,987.20
2018-03-01T10:03:51.422Z,987.18
2018-03-01T10:04:51.508Z,987.24
2018-03-01T10:05:51.603Z,987.20
2018-03-01T10:06:51.677Z,987.18
2018-03-01T10:07:51.764Z,987.19
2018-03-01T10:08:51.842Z,987.15
2018-03-01T10:09:51.923Z,987.20
2018-03-01T10:10:52.021Z,987.16
2018-03-01T10:11:52.109Z,987.14
2018-03-01T10:12:52.188Z,987.21
2018-03-01T10:13:52.283Z,987.14
2018-03-01T10:14:52.350Z,987.08
2018-03-01T10:15:52.453Z,987.06
2018-03-01T10:16:52.537Z,987.03
2018-03-01T10:17:52.621Z,987.02
2018-03-01T10:18:52.706Z,987.02
2018-03-01T10:19:52.792Z,986.99
2018-03-01T10:20:52.879Z,986.97
2018-03-01T10:21:52.968Z,986.90
2018-03-01T10:22:53.055Z,986.88
2018-03-01T10:23:53.143Z,986.80
2018-03-01T10:24:53.231Z,986.90
2018-03-01T10:25:53.315Z,986.92
2018-03-01T10:26:53.395Z,986.84
2018-03-01T10:27:53.483Z,986.83
2018-03-01T10:28:53.568Z,986.77
2018-03-01T10:29:53.656Z,986.76
2018-03-01T10:30:53.746Z,986.80
2018-03-01T10:31:53.838Z,986.84
2018-03-01T10:32:53.947Z,986.76
2018-03-01T10:33:54.028Z,986.85
2018-03-01T10:34:54.115Z,986.88
2018-03-01T10:35:54.203Z,986.75
2018-03-01T10:36:54.288Z,986.84
2018-03-01T10:37:54.373Z,986.74
2018-03-01T10:38:54.460Z,986.74
2018-03-01T10:39:54.552Z,986.78
2018-03-01T10:40:54.637Z,986.82
2018-03-01T10:41:54.723Z,986.72
2018-03-01T10:42:54.813Z,986.72
2018-03-01T10:43:54.896Z,986.61
2018-03-01T10:44:54.998Z,986.64
2018-03-01T10:45:55.071Z,986.60
2018-03-01T10:46:55.157Z,986.64
2018-03-01T10:47:55.248Z,986.65
2018-03-01T10:48:55.332Z,986.63
2018-03-01T10:49:55.420Z,986.75
2018-03-01T10:50:55.505Z,986.58
2018-03-01T10:51:55.590Z,986.51
2018-03-01T10:52:55.675Z,986.58
2018-03-01T10:53:55.771Z,986.53
2018-03-01T10:54:55.849Z,986.54
2018-03-01T10:55:55.938Z,986.55
2018-03-01T10:56:56.026Z,986.43
2018-03-01T10:57:56.103Z,986.51
2018-03-01T10:58:56.192Z,986.52
2018-03-01T10:59:56.279Z,986.53
2018-03-01T11:00:56.365Z,986.53
2018-03-01T11:01:56.457Z,986.45
2018-03-01T11:02:56.543Z,986.50
2018-03-01T11:03:56.628Z,986.51
2018-03-01T11:04:56.725Z,986.50
2018-03-01T11:05:56.800Z,986.48
2018-03-01T11:06:56.888Z,986.47
2018-03-01T11:07:56.969Z,986.45
2018-03-01T11:08:57.059Z,986.48
2018-03-01T11:09:57.147Z,986.35
2018-03-01T11:10:57.232Z,986.40
2018-03-01T11:11:57.318Z,986.35
2018-03-01T11:12:57.407Z,986.26
2018-03-01T11:13:57.495Z,986.36
2018-03-01T11:14:57.580Z,986.29
2018-03-01T11:15:57.668Z,986.37
2018-03-01T11:16:57.757Z,986.32
2018-03-01T11:17:57.842Z,986.26
2018-03-01T11:18:57.933Z,986.23
2018-03-01T11:19:58.018Z,986.26
2018-03-01T11:20:58.107Z,986.22
2018-03-01T11:21:58.217Z,986.24
2018-03-01T11:22:58.301Z,986.17
2018-03-01T11:23:58.390Z,986.11
2018-03-01T11:24:58.475Z,986.10
2018-03-01T11:25:58.563Z,986.10
2018-03-01T11:26:58.652Z,986.12
2018-03-01T11:27:58.743Z,986.08
2018-03-01T11:28:58.838Z,986.12
2018-03-01T11:29:58.926Z,986.12
2018-03-01T11:30:59.034Z,986.09
2018-03-01T11:31:59.091Z,986.16
2018-03-01T11:32:59.180Z,986.02
2018-03-01T11:33:59.265Z,986.04
2018-03-01T11:34:59.357Z,986.01
2018-03-01T11:35:59.444Z,986.01
2018-03-01T11:36:59.528Z,986.01
2018-03-01T11:37:59.642Z,985.96
2018-03-01T11:38:59.718Z,985.99
2018-03-01T11:39:59.809Z,985.93
2018-03-01T11:40:59.898Z,985.98
2018-03-01T11:41:59.987Z,985.93
2018-03-01T11:43:00.070Z,985.94
2018-03-01T11:44:00.160Z,985.93
2018-03-01T11:45:00.246Z,985.94
2018-03-01T11:46:00.330Z,985.87
2018-03-01T11:47:00.420Z,985.93
2018-03-01T11:48:00.508Z,985.84
2018-03-01T11:49:00.591Z,985.83
2018-03-01T11:50:00.684Z,985.80
2018-03-01T11:51:00.772Z,985.83
2018-03-01T11:52:00.865Z,985.72
2018-03-01T11:53:00.953Z,985.75
2018-03-01T11:54:01.035Z,985.70
2018-03-01T11:55:01.116Z,985.72
2018-03-01T11:56:01.200Z,985.70
2018-03-01T11:57:01.382Z,985.66
2018-03-01T11:58:01.383Z,985.71
2018-03-01T11:59:01.470Z,985.57
2018-03-01T12:00:01.556Z,985.69
2018-03-01T12:01:01.631Z,985.65
2018-03-01T12:02:01.718Z,985.71
2018-03-01T12:03:01.809Z,985.59
2018-03-01T12:04:01.935Z,985.56
2018-03-01T12:05:01.981Z,985.51
2018-03-01T12:06:02.082Z,985.47
2018-03-01T12:07:02.280Z,985.53
2018-03-01T12:08:02.239Z,985.43
2018-03-01T12:09:02.325Z,985.46
2018-03-01T12:10:02.414Z,985.43
2018-03-01T12:11:02.509Z,985.38
2018-03-01T12:12:02.581Z,985.39
2018-03-01T12:13:02.674Z,985.39
2018-03-01T12:14:02.752Z,985.41
2018-03-01T12:15:02.844Z,985.34
2018-03-01T12:16:02.932Z,985.40
2018-03-01T12:17:03.030Z,985.34
2018-03-01T12:18:03.101Z,985.27
2018-03-01T12:19:03.191Z,985.24
2018-03-01T12:20:03.276Z,985.29
2018-03-01T12:21:03.366Z,985.26
2018-03-01T12:22:03.496Z,985.26
2018-03-01T12:23:03.542Z,985.12
2018-03-01T12:24:03.636Z,985.21
2018-03-01T12:25:03.728Z,985.16
2018-03-01T12:26:03.814Z,985.09
2018-03-01T12:27:03.903Z,985.03
2018-03-01T12:28:03.996Z,985.06
2018-03-01T12:29:04.097Z,985.07
2018-03-01T12:30:04.180Z,985.03
2018-03-01T12:31:04.266Z,985.05
2018-03-01T12:32:04.352Z,985.08